createdAt,value
2023-05-23T00:00:38.806Z,21.40
2023-05-23T00:03:06.522Z,21.98
2023-05-23T00:05:34.231Z,22.60
2023-05-23T00:08:02.552Z,21.83
2023-05-23T00:10:30.192Z,21.33
2023-05-23T00:12:59.246Z,22.73
2023-05-23T00:15:27.154Z,20.58
2023-05-23T00:17:54.849Z,20.45
2023-05-23T00:20:22.905Z,20.65
2023-05-23T00:22:50.569Z,20.50
2023-05-23T00:25:18.225Z,20.85
2023-05-23T00:27:45.890Z,18.52
2023-05-23T00:30:15.085Z,17.40
2023-05-23T00:32:42.908Z,15.95
2023-05-23T00:35:10.811Z,15.55
2023-05-23T00:37:38.631Z,15.30
2023-05-23T00:40:08.255Z,15.25
2023-05-23T00:42:35.970Z,16.70
2023-05-23T00:45:03.855Z,16.15
2023-05-23T00:47:33.148Z,15.48
2023-05-23T00:50:01.076Z,14.57
2023-05-23T00:52:28.791Z,14.45
2023-05-23T00:54:56.652Z,14.45
2023-05-23T00:57:24.373Z,13.57
2023-05-23T00:59:53.715Z,15.32
2023-05-23T01:02:22.181Z,14.32
2023-05-23T01:04:54.499Z,14.00
2023-05-23T01:07:22.448Z,12.80
2023-05-23T01:09:50.981Z,13.25
2023-05-23T01:12:26.388Z,14.32
2023-05-23T01:15:01.789Z,13.13
2023-05-23T01:17:37.647Z,13.98
2023-05-23T01:20:10.744Z,14.77
2023-05-23T01:22:53.829Z,13.90
2023-05-23T01:25:40.923Z,15.43
2023-05-23T01:28:16.411Z,14.93
2023-05-23T01:30:46.773Z,14.77
2023-05-23T01:33:16.478Z,16.10
2023-05-23T01:35:44.302Z,15.45
2023-05-23T01:38:11.944Z,17.52
2023-05-23T01:40:40.252Z,16.23
2023-05-23T01:43:12.384Z,18.23
2023-05-23T01:45:40.755Z,26.80
2023-05-23T01:48:10.433Z,29.13
2023-05-23T01:50:38.683Z,29.10
2023-05-23T01:53:06.782Z,29.88
2023-05-23T01:55:35.815Z,31.20
2023-05-23T01:58:04.590Z,31.65
2023-05-23T02:00:33.605Z,31.83
2023-05-23T02:03:01.417Z,33.75
2023-05-23T02:05:29.100Z,34.60
2023-05-23T02:07:57.000Z,36.20
2023-05-23T02:10:24.789Z,36.65
2023-05-23T02:12:52.440Z,37.88
2023-05-23T02:15:20.235Z,38.83
2023-05-23T02:17:49.696Z,38.55
2023-05-23T02:20:19.045Z,37.47
2023-05-23T02:22:49.131Z,39.10
2023-05-23T02:25:16.921Z,37.80
2023-05-23T02:27:44.671Z,36.42
2023-05-23T02:30:13.134Z,38.42
2023-05-23T02:32:41.034Z,39.50
2023-05-23T02:35:11.282Z,39.45
2023-05-23T02:37:39.061Z,37.88
2023-05-23T02:40:08.461Z,37.60
2023-05-23T02:42:37.429Z,37.08
2023-05-23T02:45:05.643Z,38.03
2023-05-23T02:47:33.520Z,36.30
2023-05-23T02:50:01.397Z,33.92
2023-05-23T02:52:30.767Z,35.00
2023-05-23T02:54:58.392Z,34.75
2023-05-23T02:57:26.916Z,34.35
2023-05-23T02:59:54.871Z,32.47
2023-05-23T03:02:22.743Z,33.30
2023-05-23T03:04:50.964Z,32.25
2023-05-23T03:07:27.566Z,32.10
2023-05-23T03:09:58.596Z,30.27
2023-05-23T03:12:26.423Z,33.05
2023-05-23T03:14:54.680Z,33.70
2023-05-23T03:17:22.826Z,31.73
2023-05-23T03:19:50.939Z,32.90
2023-05-23T03:22:19.989Z,34.13
2023-05-23T03:24:47.957Z,33.03
2023-05-23T03:27:17.173Z,33.83
2023-05-23T03:29:45.120Z,31.90
2023-05-23T03:32:13.428Z,31.73
2023-05-23T03:34:41.580Z,29.77
2023-05-23T03:37:09.404Z,31.15
2023-05-23T03:39:39.542Z,29.63
2023-05-23T03:42:08.416Z,29.08
2023-05-23T03:44:37.690Z,30.55
2023-05-23T03:47:07.964Z,29.70
2023-05-23T03:49:38.686Z,28.27
2023-05-23T03:52:06.779Z,29.75
2023-05-23T03:54:35.501Z,28.70
2023-05-23T03:57:03.865Z,27.92
2023-05-23T03:59:31.956Z,28.83
2023-05-23T04:02:01.619Z,26.77
2023-05-23T04:04:31.151Z,25.98
2023-05-23T04:07:01.817Z,26.40
2023-05-23T04:09:30.002Z,26.60
2023-05-23T04:11:59.413Z,27.52
2023-05-23T04:14:29.501Z,28.08
2023-05-23T04:16:59.185Z,26.67
2023-05-23T04:19:28.546Z,27.63
2023-05-23T04:21:56.547Z,25.65
2023-05-23T04:24:24.298Z,26.27
2023-05-23T04:26:52.046Z,25.50
2023-05-23T04:29:20.473Z,25.38
2023-05-23T04:31:49.548Z,25.00
2023-05-23T04:34:17.544Z,27.40
2023-05-23T04:36:46.839Z,26.17
2023-05-23T04:39:15.980Z,25.95
2023-05-23T04:41:56.746Z,26.27
2023-05-23T04:44:46.043Z,26.45
2023-05-23T04:47:19.700Z,26.13
2023-05-23T04:50:09.864Z,26.70
2023-05-23T04:52:39.076Z,27.55
2023-05-23T04:55:08.608Z,26.70
2023-05-23T04:57:37.179Z,27.83
2023-05-23T05:00:10.444Z,26.98
2023-05-23T05:02:39.100Z,27.23
2023-05-23T05:05:07.904Z,27.95
2023-05-23T05:07:37.058Z,27.75
2023-05-23T05:10:08.831Z,30.15
2023-05-23T05:12:36.449Z,29.05
2023-05-23T05:15:04.907Z,29.17
2023-05-23T05:17:37.009Z,30.73
2023-05-23T05:20:10.886Z,31.55
2023-05-23T05:22:41.458Z,30.92
2023-05-23T05:25:12.336Z,32.70
2023-05-23T05:27:41.152Z,33.13
2023-05-23T05:30:12.165Z,32.85
2023-05-23T05:32:47.782Z,31.17
2023-05-23T05:35:15.914Z,33.83
2023-05-23T05:37:45.920Z,32.25
2023-05-23T05:40:15.683Z,33.92
2023-05-23T05:42:44.076Z,31.50
2023-05-23T05:45:12.520Z,33.38
2023-05-23T05:47:41.887Z,33.95
2023-05-23T05:50:10.733Z,31.08
2023-05-23T05:52:40.019Z,31.17
2023-05-23T05:55:11.296Z,30.00
2023-05-23T05:57:41.651Z,29.85
2023-05-23T06:00:14.892Z,30.25
2023-05-23T06:02:52.643Z,31.48
2023-05-23T06:05:42.093Z,31.02
2023-05-23T06:08:10.365Z,32.25
2023-05-23T06:10:39.817Z,31.70
2023-05-23T06:13:09.234Z,30.75
2023-05-23T06:15:38.212Z,33.58
2023-05-23T06:18:06.041Z,33.05
2023-05-23T06:20:33.784Z,33.85
2023-05-23T06:23:05.612Z,33.80
2023-05-23T06:25:33.674Z,33.95
2023-05-23T06:28:01.590Z,33.28
2023-05-23T06:30:32.548Z,33.22
2023-05-23T06:33:00.343Z,36.55
2023-05-23T06:35:28.078Z,32.92
2023-05-23T06:37:55.755Z,32.53
2023-05-23T06:40:23.439Z,29.45
2023-05-23T06:42:51.911Z,28.40
2023-05-23T06:45:26.158Z,26.35
2023-05-23T06:47:55.215Z,25.52
2023-05-23T06:50:22.957Z,21.30
2023-05-23T06:52:51.756Z,20.00
2023-05-23T06:55:20.403Z,21.05
2023-05-23T06:57:51.936Z,22.92
2023-05-23T07:00:21.347Z,26.30
2023-05-23T07:03:03.726Z,24.98
2023-05-23T07:05:33.329Z,24.27
2023-05-23T07:08:01.505Z,22.73
2023-05-23T07:10:29.329Z,22.52
2023-05-23T07:13:05.531Z,18.55
2023-05-23T07:15:34.285Z,17.55
2023-05-23T07:18:11.733Z,15.55
2023-05-23T07:20:39.676Z,15.40
2023-05-23T07:23:14.692Z,14.02
2023-05-23T07:25:53.798Z,13.73
2023-05-23T07:28:31.818Z,14.43
2023-05-23T07:31:00.238Z,13.38
2023-05-23T07:33:29.927Z,11.65
2023-05-23T07:36:02.143Z,12.75
2023-05-23T07:38:29.905Z,14.60
2023-05-23T07:41:09.898Z,13.05
2023-05-23T07:43:39.619Z,11.43
2023-05-23T07:46:10.520Z,11.07
2023-05-23T07:48:40.524Z,9.93
2023-05-23T07:51:15.664Z,9.75
2023-05-23T07:53:43.379Z,8.68
2023-05-23T07:56:13.981Z,8.25
2023-05-23T07:58:43.334Z,6.97
2023-05-23T08:01:11.057Z,7.10
2023-05-23T08:03:58.910Z,6.50
2023-05-23T08:06:45.765Z,6.85
2023-05-23T08:09:24.706Z,6.55
2023-05-23T08:11:56.455Z,7.00
2023-05-23T08:14:31.706Z,6.53
2023-05-23T08:17:20.545Z,6.25
2023-05-23T08:19:49.881Z,6.20
2023-05-23T08:22:17.748Z,5.32
2023-05-23T08:24:45.591Z,5.07
2023-05-23T08:27:13.470Z,5.20
2023-05-23T08:29:42.885Z,5.25
2023-05-23T08:32:11.002Z,5.20
2023-05-23T08:34:39.712Z,6.03
2023-05-23T08:37:08.734Z,6.63
2023-05-23T08:39:36.638Z,6.90
2023-05-23T08:42:36.802Z,6.78
2023-05-23T08:45:08.320Z,7.03
2023-05-23T08:47:38.927Z,7.82
2023-05-23T08:50:09.395Z,8.68
2023-05-23T08:52:42.280Z,8.85
2023-05-23T08:55:12.170Z,9.00
2023-05-23T08:57:43.647Z,8.48
2023-05-23T09:00:26.827Z,5.78
2023-05-23T09:02:55.919Z,4.97
2023-05-23T09:05:40.877Z,5.45
2023-05-23T09:08:10.680Z,6.32
2023-05-23T09:10:40.196Z,7.97
2023-05-23T09:13:09.956Z,9.05
2023-05-23T09:15:38.673Z,8.70
2023-05-23T09:18:06.770Z,9.02
2023-05-23T09:20:35.400Z,10.07
2023-05-23T09:23:13.857Z,9.75
2023-05-23T09:25:47.695Z,9.70
2023-05-23T09:28:16.233Z,8.52
2023-05-23T09:30:44.362Z,8.05
2023-05-23T09:33:15.371Z,8.38
2023-05-23T09:35:46.122Z,8.15
2023-05-23T09:38:15.308Z,8.50
2023-05-23T09:40:46.470Z,7.60
2023-05-23T09:43:18.377Z,6.88
2023-05-23T09:45:50.632Z,6.90
2023-05-23T09:48:18.388Z,8.13
2023-05-23T09:50:47.198Z,7.25
2023-05-23T09:53:16.280Z,6.80
2023-05-23T09:55:43.944Z,5.90
2023-05-23T09:58:12.621Z,6.55
2023-05-23T10:00:41.565Z,5.30
2023-05-23T10:03:12.463Z,4.63
2023-05-23T10:05:45.180Z,4.90
2023-05-23T10:08:19.627Z,4.47
2023-05-23T10:11:33.669Z,4.75
2023-05-23T10:14:03.087Z,3.95
2023-05-23T10:16:39.911Z,4.30
2023-05-23T10:19:25.240Z,4.28
2023-05-23T10:21:59.488Z,3.90
2023-05-23T10:24:29.012Z,3.80
2023-05-23T10:26:57.725Z,3.83
2023-05-23T10:29:25.880Z,3.40
2023-05-23T10:31:54.639Z,3.40
2023-05-23T10:34:28.895Z,3.13
2023-05-23T10:37:02.469Z,3.08
2023-05-23T10:39:44.710Z,3.33
2023-05-23T10:42:16.945Z,3.17
2023-05-23T10:44:44.670Z,3.08
2023-05-23T10:47:13.188Z,2.95
2023-05-23T10:49:45.941Z,2.80
2023-05-23T10:52:14.904Z,3.15
2023-05-23T10:54:46.527Z,3.97
2023-05-23T10:57:17.723Z,3.15
2023-05-23T10:59:46.915Z,2.90
2023-05-23T11:02:16.014Z,3.55
2023-05-23T11:04:44.193Z,3.13
2023-05-23T11:07:31.441Z,3.53
2023-05-23T11:10:10.787Z,3.28
2023-05-23T11:12:39.474Z,3.25
2023-05-23T11:15:42.706Z,3.80
2023-05-23T11:18:11.833Z,3.42
2023-05-23T11:20:40.004Z,3.42
2023-05-23T11:23:09.297Z,3.17
2023-05-23T11:25:45.640Z,3.28
2023-05-23T11:28:14.247Z,3.58
2023-05-23T11:30:42.448Z,3.63
2023-05-23T11:33:13.678Z,3.97
2023-05-23T11:35:42.486Z,3.13
2023-05-23T11:38:10.942Z,3.25
2023-05-23T11:40:40.722Z,3.17
2023-05-23T11:43:11.522Z,4.55
2023-05-23T11:45:40.121Z,3.22
2023-05-23T11:48:09.347Z,4.00
2023-05-23T11:50:45.584Z,3.17
2023-05-23T11:53:13.358Z,3.78
2023-05-23T11:55:41.852Z,3.10
2023-05-23T11:58:11.298Z,3.25
2023-05-23T12:00:44.562Z,4.15
2023-05-23T12:03:12.789Z,3.13
2023-05-23T12:05:40.734Z,3.33
2023-05-23T12:08:11.836Z,3.88
2023-05-23T12:10:50.527Z,3.35
2023-05-23T12:13:20.128Z,2.83
2023-05-23T12:15:48.047Z,3.35
2023-05-23T12:18:18.222Z,3.38
2023-05-23T12:20:46.066Z,3.50
2023-05-23T12:23:19.549Z,3.33
2023-05-23T12:25:51.771Z,3.95
2023-05-23T12:28:21.350Z,3.50
2023-05-23T12:30:49.571Z,4.10
2023-05-23T12:33:20.552Z,3.25
2023-05-23T12:35:48.239Z,3.20
2023-05-23T12:38:17.522Z,3.20
2023-05-23T12:40:45.290Z,3.22
2023-05-23T12:43:13.061Z,3.30
2023-05-23T12:45:43.448Z,2.67
2023-05-23T12:48:11.340Z,2.75
2023-05-23T12:50:39.137Z,3.40
2023-05-23T12:53:06.770Z,2.70
2023-05-23T12:55:34.385Z,3.05
2023-05-23T12:58:02.140Z,2.92
2023-05-23T13:00:29.884Z,2.83
2023-05-23T13:02:58.985Z,2.90
2023-05-23T13:05:27.652Z,3.50
2023-05-23T13:07:55.441Z,2.83
2023-05-23T13:10:23.172Z,3.25
2023-05-23T13:12:50.836Z,3.65
2023-05-23T13:15:18.801Z,3.35
2023-05-23T13:17:50.167Z,3.75
2023-05-23T13:20:19.618Z,3.40
2023-05-23T13:22:47.396Z,3.38
2023-05-23T13:25:15.109Z,3.55
2023-05-23T13:27:42.701Z,3.60
2023-05-23T13:30:11.291Z,3.30
2023-05-23T13:32:39.003Z,3.30
2023-05-23T13:35:07.683Z,3.55
2023-05-23T13:37:36.775Z,3.70
2023-05-23T13:40:05.933Z,3.60
2023-05-23T13:42:34.253Z,3.70
2023-05-23T13:45:01.913Z,3.40
2023-05-23T13:47:29.695Z,3.00
2023-05-23T13:49:57.351Z,3.47
2023-05-23T13:52:24.989Z,3.28
2023-05-23T13:54:54.197Z,3.33
2023-05-23T13:57:22.005Z,3.13
2023-05-23T13:59:49.649Z,3.92
2023-05-23T14:02:17.317Z,3.53
2023-05-23T14:04:45.063Z,3.30
2023-05-23T14:07:12.671Z,3.13
2023-05-23T14:09:40.357Z,3.53
2023-05-23T14:12:09.631Z,3.65
2023-05-23T14:14:37.283Z,3.70
2023-05-23T14:17:04.937Z,3.03
2023-05-23T14:19:32.774Z,2.92
2023-05-23T14:22:00.485Z,2.75
2023-05-23T14:24:28.167Z,3.97
2023-05-23T14:26:55.947Z,2.95
2023-05-23T14:29:24.881Z,3.85
2023-05-23T14:31:52.722Z,3.00
2023-05-23T14:34:21.381Z,2.95
2023-05-23T14:36:49.006Z,3.08
2023-05-23T14:39:16.746Z,3.00
2023-05-23T14:41:44.679Z,3.03
2023-05-23T14:44:12.335Z,2.85
2023-05-23T14:46:42.621Z,2.45
2023-05-23T14:49:10.319Z,2.47
2023-05-23T14:51:47.238Z,2.67
2023-05-23T14:54:17.980Z,2.72
2023-05-23T14:56:45.726Z,2.78
2023-05-23T14:59:13.387Z,2.78
2023-05-23T15:01:42.641Z,2.90
2023-05-23T15:04:10.804Z,2.65
2023-05-23T15:06:40.380Z,2.58
2023-05-23T15:09:10.465Z,3.17
2023-05-23T15:11:38.812Z,2.60
2023-05-23T15:14:06.843Z,2.83
2023-05-23T15:16:36.597Z,2.80
2023-05-23T15:19:06.104Z,2.88
2023-05-23T15:21:34.016Z,2.92
2023-05-23T15:24:01.911Z,3.28
2023-05-23T15:26:29.976Z,2.78
2023-05-23T15:28:57.685Z,3.35
2023-05-23T15:31:25.422Z,2.85
2023-05-23T15:33:53.140Z,3.25
2023-05-23T15:36:22.102Z,3.28
2023-05-23T15:38:49.683Z,3.05
2023-05-23T15:41:17.902Z,2.97
2023-05-23T15:43:45.500Z,3.53
2023-05-23T15:46:13.282Z,3.80
2023-05-23T15:48:40.931Z,2.63
2023-05-23T15:51:08.581Z,2.58
2023-05-23T15:53:58.022Z,3.05
2023-05-23T15:56:25.168Z,2.88
2023-05-23T15:58:52.781Z,2.90
2023-05-23T16:01:20.669Z,3.00
2023-05-23T16:03:48.544Z,2.33
2023-05-23T16:06:16.374Z,2.53
2023-05-23T16:08:45.600Z,2.58
2023-05-23T16:11:13.291Z,3.22
2023-05-23T16:13:40.907Z,3.22
2023-05-23T16:16:08.705Z,2.78
2023-05-23T16:18:36.468Z,2.90
2023-05-23T16:21:04.422Z,2.80
2023-05-23T16:23:32.205Z,3.20
2023-05-23T16:26:01.364Z,2.80
2023-05-23T16:28:29.388Z,4.32
2023-05-23T16:30:57.335Z,2.95
2023-05-23T16:33:25.216Z,2.50
2023-05-23T16:35:52.802Z,3.05
2023-05-23T16:38:20.535Z,2.80
2023-05-23T16:40:48.258Z,3.10
2023-05-23T16:43:17.316Z,2.35
2023-05-23T16:45:45.251Z,3.35
2023-05-23T16:48:13.182Z,4.03
2023-05-23T16:50:41.032Z,2.88
2023-05-23T16:53:08.792Z,3.00
2023-05-23T16:55:36.426Z,3.05
2023-05-23T16:58:04.094Z,3.08
2023-05-23T17:00:33.207Z,2.67
2023-05-23T17:03:01.086Z,2.70
2023-05-23T17:05:28.848Z,3.15
2023-05-23T17:07:56.596Z,2.58
2023-05-23T17:10:24.283Z,2.40
2023-05-23T17:12:52.248Z,3.00
2023-05-23T17:15:19.978Z,2.85
2023-05-23T17:17:49.133Z,2.83
2023-05-23T17:20:16.860Z,2.85
2023-05-23T17:22:44.528Z,3.03
2023-05-23T17:25:12.140Z,2.67
2023-05-23T17:27:39.840Z,2.67
2023-05-23T17:30:08.554Z,2.97
2023-05-23T17:32:36.268Z,2.70
2023-05-23T17:35:05.822Z,7.38
2023-05-23T17:37:35.217Z,2.35
2023-05-23T17:40:04.311Z,2.60
2023-05-23T17:42:32.039Z,2.55
2023-05-23T17:44:59.664Z,2.78
2023-05-23T17:47:27.492Z,3.17
2023-05-23T17:49:55.610Z,2.78
2023-05-23T17:52:24.843Z,2.95
2023-05-23T17:54:52.588Z,2.63
2023-05-23T17:57:20.293Z,2.55
2023-05-23T17:59:48.138Z,2.40
2023-05-23T18:02:15.866Z,2.38
2023-05-23T18:04:43.636Z,3.92
2023-05-23T18:07:13.070Z,2.42
2023-05-23T18:09:42.043Z,2.85
2023-05-23T18:12:10.197Z,3.55
2023-05-23T18:14:39.355Z,2.90
2023-05-23T18:17:07.354Z,3.50
2023-05-23T18:19:35.807Z,2.78
2023-05-23T18:22:03.494Z,3.00
2023-05-23T18:24:31.186Z,2.47
2023-05-23T18:27:00.721Z,3.50
2023-05-23T18:29:28.468Z,3.10
2023-05-23T18:31:56.313Z,3.22
2023-05-23T18:34:24.584Z,3.25
2023-05-23T18:36:53.165Z,2.63
2023-05-23T18:39:20.821Z,3.13
2023-05-23T18:41:48.516Z,3.15
2023-05-23T18:44:20.292Z,2.78
2023-05-23T18:46:48.381Z,2.83
2023-05-23T18:49:16.122Z,2.97
2023-05-23T18:51:43.792Z,3.58
2023-05-23T18:54:11.443Z,2.60
2023-05-23T18:56:39.103Z,3.08
2023-05-23T18:59:06.778Z,2.63
2023-05-23T19:01:35.820Z,3.10
2023-05-23T19:04:03.814Z,3.65
2023-05-23T19:06:31.716Z,2.95
2023-05-23T19:08:59.367Z,2.72
2023-05-23T19:11:27.018Z,3.22
2023-05-23T19:13:54.648Z,2.65
2023-05-23T19:16:22.368Z,2.90
2023-05-23T19:18:51.525Z,3.08
2023-05-23T19:21:19.224Z,3.10
2023-05-23T19:23:47.137Z,3.80
2023-05-23T19:26:14.795Z,3.17
2023-05-23T19:28:42.549Z,3.22
2023-05-23T19:31:12.242Z,3.10
2023-05-23T19:33:39.961Z,3.20
2023-05-23T19:36:09.130Z,3.35
2023-05-23T19:38:37.059Z,3.38
2023-05-23T19:41:04.767Z,3.25
2023-05-23T19:43:32.516Z,3.33
2023-05-23T19:46:00.332Z,3.38
2023-05-23T19:48:28.017Z,2.78
2023-05-23T19:50:55.847Z,3.15
2023-05-23T19:53:24.832Z,2.47
2023-05-23T19:55:52.718Z,3.05
2023-05-23T19:58:21.008Z,4.53
2023-05-23T20:00:48.817Z,3.05
2023-05-23T20:03:16.663Z,3.63
2023-05-23T20:05:44.889Z,3.00
2023-05-23T20:08:12.573Z,3.33
2023-05-23T20:10:43.228Z,3.25
2023-05-23T20:13:11.513Z,4.75
2023-05-23T20:15:40.658Z,3.60
2023-05-23T20:18:08.986Z,3.55
2023-05-23T20:20:36.785Z,3.28
2023-05-23T20:23:05.708Z,3.35
2023-05-23T20:25:33.785Z,4.00
2023-05-23T20:28:02.769Z,3.30
2023-05-23T20:30:30.660Z,4.25
2023-05-23T20:32:58.375Z,3.22
2023-05-23T20:35:27.088Z,3.45
2023-05-23T20:37:55.028Z,4.00
2023-05-23T20:40:23.174Z,3.50
2023-05-23T20:42:51.740Z,3.95
2023-05-23T20:45:21.735Z,3.55
2023-05-23T20:47:49.469Z,3.95
2023-05-23T20:50:19.070Z,3.42
2023-05-23T20:52:47.126Z,3.97
2023-05-23T20:55:15.261Z,3.95
2023-05-23T20:57:43.219Z,3.45
2023-05-23T21:00:12.551Z,3.72
2023-05-23T21:02:42.407Z,4.15
2023-05-23T21:05:11.620Z,5.05
2023-05-23T21:07:39.567Z,4.68
2023-05-23T21:10:08.028Z,3.72
2023-05-23T21:12:35.744Z,4.00
2023-05-23T21:15:03.479Z,4.43
2023-05-23T21:17:31.199Z,4.40
2023-05-23T21:20:00.461Z,3.63
2023-05-23T21:22:28.106Z,4.82
2023-05-23T21:24:55.835Z,4.25
2023-05-23T21:27:23.490Z,3.92
2023-05-23T21:29:51.201Z,4.68
2023-05-23T21:32:19.273Z,4.07
2023-05-23T21:34:47.045Z,3.60
2023-05-23T21:37:16.231Z,4.57
2023-05-23T21:39:51.339Z,3.97
2023-05-23T21:42:21.252Z,4.13
2023-05-23T21:44:49.211Z,5.80
2023-05-23T21:47:16.968Z,3.63
2023-05-23T21:49:44.719Z,3.63
2023-05-23T21:52:12.432Z,4.18
2023-05-23T21:54:41.367Z,5.47
2023-05-23T21:57:09.147Z,5.55
2023-05-23T21:59:36.746Z,4.72
2023-05-23T22:02:04.714Z,4.32
2023-05-23T22:04:32.788Z,4.25
2023-05-23T22:07:00.544Z,4.10
2023-05-23T22:09:29.332Z,4.80
2023-05-23T22:11:58.742Z,4.38
2023-05-23T22:14:26.439Z,4.63
2023-05-23T22:16:54.380Z,4.78
2023-05-23T22:19:26.105Z,4.65
2023-05-23T22:21:53.899Z,4.47
2023-05-23T22:24:21.569Z,3.85
2023-05-23T22:26:49.230Z,4.40
2023-05-23T22:29:18.328Z,4.00
2023-05-23T22:31:46.826Z,5.10
2023-05-23T22:34:14.771Z,4.72
2023-05-23T22:36:42.477Z,4.05
2023-05-23T22:39:10.482Z,4.15
2023-05-23T22:41:38.168Z,5.78
2023-05-23T22:44:06.014Z,4.15
2023-05-23T22:46:35.138Z,4.57
2023-05-23T22:49:03.597Z,4.43
2023-05-23T22:51:33.961Z,4.43
2023-05-23T22:54:01.857Z,4.63
2023-05-23T22:56:29.673Z,5.72
2023-05-23T22:58:57.328Z,5.18
2023-05-23T23:01:25.047Z,4.20
2023-05-23T23:03:54.135Z,4.07
2023-05-23T23:06:21.994Z,4.90
2023-05-23T23:08:49.918Z,5.28
2023-05-23T23:11:17.677Z,4.53
2023-05-23T23:13:45.838Z,4.68
2023-05-23T23:16:13.613Z,5.15
2023-05-23T23:18:41.583Z,5.68
2023-05-23T23:21:10.702Z,5.10
2023-05-23T23:23:38.541Z,4.30
2023-05-23T23:26:06.269Z,5.07
2023-05-23T23:28:34.087Z,5.00
2023-05-23T23:31:02.027Z,4.80
2023-05-23T23:33:29.751Z,5.00
2023-05-23T23:35:58.226Z,4.88
2023-05-23T23:38:27.255Z,4.57
2023-05-23T23:40:54.939Z,5.05
2023-05-23T23:43:22.833Z,5.07
2023-05-23T23:45:50.498Z,5.38
2023-05-23T23:48:18.242Z,4.82
2023-05-23T23:50:46.242Z,4.22
2023-05-23T23:53:13.954Z,4.72
2023-05-23T23:55:43.035Z,4.72
2023-05-23T23:58:10.794Z,5.50
